^^
Station Historical Data
Daily Summary for March 17, 2017 Units:  English    Metric   Both
« Previous Day
Next Day »
Daily Weekly Monthly Yearly Custom
  High: Low: Average:
Temperature: 28.6 °F 24.6 °F 26.7 °F
Dew Point: 27.1 °F 22.9 °F 25.1 °F
Humidity: 94 % 93 % 93 %
Wind Speed: 10.2 mph 0.0 mph 3.5 mph
Wind Gust: 16.1 mph - -
Wind:- - West
Pressure: 30.25 in 30.20 in -
Precipitation: 0.00 in    
Historical Graphs
 
 
Tabular Data for March 17, 2017
Time Temperature Dew Point Pressure Wind Wind Speed Wind Gust Humidity Rainfall Rate (Hourly) solar Conditions
00:03 28.6 °F 27.1 °F 30.20 in NW 2.5 mph 8.1 mph 94 % 0.00 in 0.0 W/m2 RA
00:08 28.5 °F 27.0 °F 30.20 in WNW 5.2 mph 9.2 mph 94 % 0.00 in 0.0 W/m2 RA
00:13 28.4 °F 26.9 °F 30.20 in WNW 10.2 mph 12.7 mph 94 % 0.00 in 0.0 W/m2 CLR
00:18 28.3 °F 26.8 °F 30.21 in WNW 3.2 mph 8.1 mph 94 % 0.00 in 0.0 W/m2 CLR
00:23 28.2 °F 26.7 °F 30.21 in WNW 7.8 mph 9.2 mph 94 % 0.00 in 0.0 W/m2 CLR
00:28 28.2 °F 26.7 °F 30.21 in NW 5.8 mph 11.5 mph 94 % 0.00 in 0.0 W/m2 CLR
00:33 28.1 °F 26.6 °F 30.21 in WNW 3.9 mph 9.0 mph 94 % 0.00 in 0.0 W/m2 CLR
00:38 28.0 °F 26.5 °F 30.21 in West 7.9 mph 13.8 mph 94 % 0.00 in 0.0 W/m2 CLR
00:43 28.0 °F 26.5 °F 30.22 in WSW 6.0 mph 13.0 mph 94 % 0.00 in 0.0 W/m2 CLR
00:48 27.9 °F 26.1 °F 30.22 in West 5.5 mph 10.4 mph 93 % 0.00 in 0.0 W/m2 CLR
00:53 27.8 °F 26.3 °F 30.22 in WSW 7.1 mph 16.1 mph 94 % 0.00 in 0.0 W/m2 CLR
00:58 27.8 °F 26.0 °F 30.22 in WNW 6.5 mph 10.4 mph 93 % 0.00 in 0.0 W/m2 CLR
01:03 27.7 °F 25.9 °F 30.22 in WNW 8.6 mph 11.5 mph 93 % 0.00 in 0.0 W/m2 CLR
01:08 27.6 °F 25.8 °F 30.23 in WNW 4.6 mph 10.4 mph 93 % 0.00 in 0.0 W/m2 CLR
01:13 27.6 °F 25.8 °F 30.23 in West 6.6 mph 11.5 mph 93 % 0.00 in 0.0 W/m2 CLR
01:18 27.5 °F 25.7 °F 30.23 in NW 6.3 mph 12.7 mph 93 % 0.00 in 0.0 W/m2 CLR
01:23 27.4 °F 25.6 °F 30.23 in West 7.2 mph 11.5 mph 93 % 0.00 in 0.0 W/m2 CLR
01:28 27.4 °F 25.6 °F 30.23 in West 5.9 mph 10.4 mph 93 % 0.00 in 0.0 W/m2 CLR
01:33 27.3 °F 25.5 °F 30.24 in West 3.3 mph 7.0 mph 93 % 0.00 in 0.0 W/m2 CLR
01:38 27.2 °F 25.4 °F 30.24 in West 7.9 mph 13.8 mph 93 % 0.00 in 0.0 W/m2 CLR
01:43 27.1 °F 25.3 °F 30.24 in West 5.4 mph 11.5 mph 93 % 0.00 in 0.0 W/m2 CLR
01:48 27.1 °F 25.3 °F 30.24 in West 3.4 mph 6.9 mph 93 % 0.00 in 0.0 W/m2 CLR
01:53 27.0 °F 25.2 °F 30.24 in WNW 2.8 mph 5.8 mph 93 % 0.00 in 0.0 W/m2 CLR
01:58 27.0 °F 25.2 °F 30.24 in West 6.1 mph 10.4 mph 93 % 0.00 in 0.0 W/m2 CLR
02:03 26.9 °F 25.1 °F 30.24 in West 4.4 mph 8.1 mph 93 % 0.00 in 0.0 W/m2 CLR
02:08 26.9 °F 25.1 °F 30.24 in WSW 2.9 mph 7.0 mph 93 % 0.00 in 0.0 W/m2 CLR
02:13 26.8 °F 25.0 °F 30.24 in West 4.0 mph 7.0 mph 93 % 0.00 in 0.0 W/m2 CLR
02:18 26.8 °F 25.0 °F 30.25 in WNW 2.8 mph 6.9 mph 93 % 0.00 in 0.0 W/m2 CLR
02:23 26.7 °F 24.9 °F 30.25 in West 2.0 mph 8.1 mph 93 % 0.00 in 0.0 W/m2 CLR
02:25 26.7 °F 24.9 °F 30.25 in West 2.8 mph 5.8 mph 93 % 0.00 in 0.0 W/m2 CLR
02:30 26.7 °F 24.9 °F 30.25 in Calm   1.2 mph 93 % 0.00 in 0.0 W/m2 CLR
02:35 26.6 °F 24.8 °F 30.25 in West 0.1 mph 1.0 mph 93 % 0.00 in 0.0 W/m2 CLR
02:40 26.6 °F 24.8 °F 30.25 in WSW 0.8 mph 4.0 mph 93 % 0.00 in 0.0 W/m2 CLR
02:45 26.5 °F 25.0 °F 30.25 in West 1.2 mph 3.5 mph 94 % 0.00 in 0.0 W/m2 CLR
02:50 26.3 °F 24.8 °F 30.24 in WSW 0.2 mph 2.3 mph 94 % 0.00 in 0.0 W/m2 CLR
02:55 26.1 °F 24.6 °F 30.25 in WSW 0.6 mph 3.5 mph 94 % 0.00 in 0.0 W/m2 CLR
03:00 25.9 °F 24.4 °F 30.25 in WSW 1.0 mph 3.5 mph 94 % 0.00 in 0.0 W/m2 CLR
03:05 25.7 °F 24.2 °F 30.25 in WSW 1.6 mph 3.5 mph 94 % 0.00 in 0.0 W/m2 CLR
03:10 25.7 °F 24.2 °F 30.24 in WSW 0.2 mph 1.2 mph 94 % 0.00 in 0.0 W/m2 CLR
03:15 25.6 °F 24.1 °F 30.24 in West 0.6 mph 3.5 mph 94 % 0.00 in 0.0 W/m2 CLR
03:20 25.4 °F 23.9 °F 30.25 in WSW 0.8 mph 3.5 mph 94 % 0.00 in 0.0 W/m2 CLR
03:25 25.3 °F 23.8 °F 30.25 in West 0.5 mph 3.5 mph 94 % 0.00 in 0.0 W/m2 CLR
03:30 25.2 °F 23.7 °F 30.25 in West 0.8 mph 3.5 mph 94 % 0.00 in 0.0 W/m2 CLR
03:35 25.1 °F 23.6 °F 30.25 in SW 1.2 mph 3.5 mph 94 % 0.00 in 0.0 W/m2 CLR
03:40 25.0 °F 23.5 °F 30.25 in SW 2.2 mph 6.9 mph 94 % 0.00 in 0.0 W/m2 CLR
03:45 24.9 °F 23.2 °F 30.25 in WSW 2.9 mph 7.0 mph 93 % 0.00 in 0.0 W/m2 CLR
03:50 24.8 °F 23.1 °F 30.25 in Calm   1.2 mph 93 % 0.00 in 0.0 W/m2 CLR
03:55 24.8 °F 23.1 °F 30.25 in WSW 1.9 mph 4.6 mph 93 % 0.00 in 0.0 W/m2 CLR
04:00 24.8 °F 23.1 °F 30.25 in WSW 2.4 mph 4.6 mph 93 % 0.00 in 0.0 W/m2 CLR
04:05 24.7 °F 23.0 °F 30.25 in SW 1.2 mph 3.5 mph 93 % 0.00 in 0.0 W/m2 CLR
04:10 24.6 °F 22.9 °F 30.25 in SW 2.0 mph 8.0 mph 93 % 0.00 in 0.0 W/m2 CLR
Air Products Campus Weather
Compliments of Weather Underground - 2 mb